sensor_id;sensor_type;location;lat;lon;timestamp;pressure;altitude;pressure_sealevel;temperature;humidity
34506;BME280;20748;42.632;23.198;2023-07-13T00:02:56;92440.13;;;20.54;76.73
34506;BME280;20748;42.632;23.198;2023-07-13T00:05:29;92437.47;;;20.54;75.54
34506;BME280;20748;42.632;23.198;2023-07-13T00:08:01;92442.34;;;20.52;76.69
34506;BME280;20748;42.632;23.198;2023-07-13T00:10:33;92439.00;;;20.55;76.47
34506;BME280;20748;42.632;23.198;2023-07-13T00:13:06;92439.97;;;20.47;77.17
34506;BME280;20748;42.632;23.198;2023-07-13T00:15:38;92431.13;;;20.39;77.35
34506;BME280;20748;42.632;23.198;2023-07-13T00:18:11;92428.25;;;20.28;77.19
34506;BME280;20748;42.632;23.198;2023-07-13T00:24:43;92413.81;;;20.25;79.00
34506;BME280;20748;42.632;23.198;2023-07-13T00:27:16;92422.53;;;20.26;79.65
34506;BME280;20748;42.632;23.198;2023-07-13T00:29:49;92416.84;;;20.24;79.49
34506;BME280;20748;42.632;23.198;2023-07-13T00:32:23;92414.94;;;20.24;80.15
34506;BME280;20748;42.632;23.198;2023-07-13T00:34:57;92417.19;;;20.22;80.12
34506;BME280;20748;42.632;23.198;2023-07-13T00:37:32;92411.09;;;20.22;79.87
34506;BME280;20748;42.632;23.198;2023-07-13T00:40:10;92407.78;;;20.25;80.49
34506;BME280;20748;42.632;23.198;2023-07-13T00:48:33;92415.22;;;19.99;79.46
34506;BME280;20748;42.632;23.198;2023-07-13T00:51:06;92409.84;;;19.96;79.96
34506;BME280;20748;42.632;23.198;2023-07-13T00:53:39;92411.03;;;19.98;80.69
34506;BME280;20748;42.632;23.198;2023-07-13T00:56:12;92412.81;;;19.94;81.42
34506;BME280;20748;42.632;23.198;2023-07-13T00:58:46;92414.03;;;19.97;81.57
34506;BME280;20748;42.632;23.198;2023-07-13T01:01:18;92416.31;;;19.98;81.52
34506;BME280;20748;42.632;23.198;2023-07-13T01:03:51;92404.78;;;19.91;80.72
34506;BME280;20748;42.632;23.198;2023-07-13T01:10:03;92409.34;;;19.74;80.31
34506;BME280;20748;42.632;23.198;2023-07-13T01:12:36;92412.78;;;19.75;80.64
34506;BME280;20748;42.632;23.198;2023-07-13T01:15:34;92409.63;;;19.69;79.55
34506;BME280;20748;42.632;23.198;2023-07-13T01:18:09;92411.50;;;19.68;79.48
34506;BME280;20748;42.632;23.198;2023-07-13T01:20:50;92412.19;;;19.65;79.92
34506;BME280;20748;42.632;23.198;2023-07-13T01:23:23;92407.03;;;19.72;81.26
34506;BME280;20748;42.632;23.198;2023-07-13T01:25:57;92404.25;;;19.65;81.08
34506;BME280;20748;42.632;23.198;2023-07-13T01:36:23;92395.50;;;19.45;82.06
34506;BME280;20748;42.632;23.198;2023-07-13T01:38:55;92391.91;;;19.53;82.89
34506;BME280;20748;42.632;23.198;2023-07-13T01:41:28;92395.16;;;19.47;83.22
34506;BME280;20748;42.632;23.198;2023-07-13T01:44:00;92394.97;;;19.55;83.46
34506;BME280;20748;42.632;23.198;2023-07-13T01:46:33;92395.56;;;19.49;83.17
34506;BME280;20748;42.632;23.198;2023-07-13T01:49:05;92391.66;;;19.42;82.99
34506;BME280;20748;42.632;23.198;2023-07-13T01:51:39;92391.22;;;19.40;83.39
34506;BME280;20748;42.632;23.198;2023-07-13T01:56:54;92382.50;;;19.40;83.95
34506;BME280;20748;42.632;23.198;2023-07-13T01:59:27;92388.59;;;19.40;84.35
34506;BME280;20748;42.632;23.198;2023-07-13T02:02:00;92389.72;;;19.39;83.77
34506;BME280;20748;42.632;23.198;2023-07-13T02:04:33;92391.81;;;19.34;83.02
34506;BME280;20748;42.632;23.198;2023-07-13T02:07:05;92392.94;;;19.32;82.95
34506;BME280;20748;42.632;23.198;2023-07-13T02:09:38;92388.94;;;19.23;83.28
34506;BME280;20748;42.632;23.198;2023-07-13T02:12:11;92389.28;;;19.21;82.82
34506;BME280;20748;42.632;23.198;2023-07-13T02:20:53;92398.25;;;19.16;84.29
34506;BME280;20748;42.632;23.198;2023-07-13T02:23:26;92391.44;;;19.15;83.63
34506;BME280;20748;42.632;23.198;2023-07-13T02:25:59;92398.91;;;19.13;84.24
34506;BME280;20748;42.632;23.198;2023-07-13T02:28:33;92403.88;;;19.15;84.70
34506;BME280;20748;42.632;23.198;2023-07-13T02:31:07;92395.06;;;19.11;84.34
34506;BME280;20748;42.632;23.198;2023-07-13T02:33:39;92393.53;;;19.10;84.94
34506;BME280;20748;42.632;23.198;2023-07-13T02:36:13;92399.09;;;19.04;84.29
34506;BME280;20748;42.632;23.198;2023-07-13T02:41:38;92386.78;;;18.96;84.94
34506;BME280;20748;42.632;23.198;2023-07-13T02:44:12;92402.72;;;19.00;85.52
34506;BME280;20748;42.632;23.198;2023-07-13T02:46:45;92401.63;;;19.01;85.15
34506;BME280;20748;42.632;23.198;2023-07-13T02:49:18;92388.31;;;18.97;84.26
34506;BME280;20748;42.632;23.198;2023-07-13T02:51:51;92392.41;;;18.95;84.08
34506;BME280;20748;42.632;23.198;2023-07-13T02:54:24;92401.63;;;19.01;84.78
34506;BME280;20748;42.632;23.198;2023-07-13T02:56:57;92399.44;;;19.03;84.30
34506;BME280;20748;42.632;23.198;2023-07-13T03:03:55;92400.41;;;18.98;84.93
34506;BME280;20748;42.632;23.198;2023-07-13T03:06:28;92409.06;;;18.95;85.21
34506;BME280;20748;42.632;23.198;2023-07-13T03:09:02;92400.88;;;19.00;85.93
34506;BME280;20748;42.632;23.198;2023-07-13T03:11:37;92403.69;;;18.91;85.91
34506;BME280;20748;42.632;23.198;2023-07-13T03:14:23;92386.69;;;18.76;85.73
34506;BME280;20748;42.632;23.198;2023-07-13T03:16:56;92396.75;;;18.87;85.58
34506;BME280;20748;42.632;23.198;2023-07-13T03:19:32;92401.53;;;18.81;86.02
34506;BME280;20748;42.632;23.198;2023-07-13T03:27:28;92394.03;;;18.83;85.03
34506;BME280;20748;42.632;23.198;2023-07-13T03:30:02;92400.09;;;18.84;85.85
34506;BME280;20748;42.632;23.198;2023-07-13T03:32:35;92400.34;;;18.78;85.94
34506;BME280;20748;42.632;23.198;2023-07-13T03:35:09;92403.41;;;18.81;85.40
34506;BME280;20748;42.632;23.198;2023-07-13T03:37:42;92408.34;;;18.82;86.15
34506;BME280;20748;42.632;23.198;2023-07-13T03:40:20;92411.06;;;18.86;87.30
34506;BME280;20748;42.632;23.198;2023-07-13T03:42:54;92408.75;;;18.84;87.45
34506;BME280;20748;42.632;23.198;2023-07-13T03:45:27;92411.16;;;18.89;87.25
34506;BME280;20748;42.632;23.198;2023-07-13T03:53:35;92412.13;;;18.97;87.96
34506;BME280;20748;42.632;23.198;2023-07-13T03:56:08;92406.56;;;18.86;88.00
34506;BME280;20748;42.632;23.198;2023-07-13T03:58:43;92412.34;;;18.92;87.59
34506;BME280;20748;42.632;23.198;2023-07-13T04:01:22;92411.34;;;18.97;87.15
34506;BME280;20748;42.632;23.198;2023-07-13T04:03:55;92407.59;;;18.98;86.38
34506;BME280;20748;42.632;23.198;2023-07-13T04:06:30;92415.09;;;18.96;85.36
34506;BME280;20748;42.632;23.198;2023-07-13T04:09:04;92409.56;;;19.01;87.44
34506;BME280;20748;42.632;23.198;2023-07-13T04:14:35;92409.00;;;19.08;89.96
34506;BME280;20748;42.632;23.198;2023-07-13T04:17:08;92408.31;;;19.11;90.29
34506;BME280;20748;42.632;23.198;2023-07-13T04:19:40;92411.03;;;19.14;89.00
34506;BME280;20748;42.632;23.198;2023-07-13T04:22:13;92404.22;;;19.13;89.73
34506;BME280;20748;42.632;23.198;2023-07-13T04:24:45;92408.13;;;19.19;88.44
34506;BME280;20748;42.632;23.198;2023-07-13T04:27:18;92406.34;;;19.24;88.01
34506;BME280;20748;42.632;23.198;2023-07-13T04:29:51;92414.81;;;19.29;87.23
34506;BME280;20748;42.632;23.198;2023-07-13T04:32:24;92415.72;;;19.37;86.32
34506;BME280;20748;42.632;23.198;2023-07-13T04:40:31;92417.25;;;19.54;90.61
34506;BME280;20748;42.632;23.198;2023-07-13T04:43:04;92420.06;;;19.62;89.07
34506;BME280;20748;42.632;23.198;2023-07-13T04:45:36;92419.78;;;19.67;85.85
34506;BME280;20748;42.632;23.198;2023-07-13T04:48:09;92424.13;;;19.75;83.49
34506;BME280;20748;42.632;23.198;2023-07-13T04:50:41;92429.66;;;19.86;82.52
34506;BME280;20748;42.632;23.198;2023-07-13T04:53:14;92434.44;;;19.96;82.37
34506;BME280;20748;42.632;23.198;2023-07-13T04:55:48;92440.66;;;20.04;82.75
34506;BME280;20748;42.632;23.198;2023-07-13T05:01:18;92436.53;;;20.26;82.05
34506;BME280;20748;42.632;23.198;2023-07-13T05:03:52;92444.00;;;20.41;82.03
34506;BME280;20748;42.632;23.198;2023-07-13T05:06:24;92434.72;;;20.50;82.64
34506;BME280;20748;42.632;23.198;2023-07-13T05:08:57;92443.81;;;20.69;83.33
34506;BME280;20748;42.632;23.198;2023-07-13T05:11:29;92441.34;;;20.80;82.38
34506;BME280;20748;42.632;23.198;2023-07-13T05:14:02;92446.16;;;20.94;82.78
34506;BME280;20748;42.632;23.198;2023-07-13T05:16:35;92444.88;;;21.08;81.81
34506;BME280;20748;42.632;23.198;2023-07-13T05:25:44;92451.75;;;21.59;81.27
34506;BME280;20748;42.632;23.198;2023-07-13T05:28:17;92454.75;;;21.81;80.73
34506;BME280;20748;42.632;23.198;2023-07-13T05:30:50;92453.47;;;21.98;78.77
34506;BME280;20748;42.632;23.198;2023-07-13T05:33:23;92454.13;;;22.18;79.04
34506;BME280;20748;42.632;23.198;2023-07-13T05:35:55;92459.69;;;22.36;77.94
34506;BME280;20748;42.632;23.198;2023-07-13T05:38:28;92454.63;;;22.55;75.88
34506;BME280;20748;42.632;23.198;2023-07-13T05:41:01;92465.03;;;22.71;75.24
34506;BME280;20748;42.632;23.198;2023-07-13T05:47:32;92467.31;;;23.10;72.04
34506;BME280;20748;42.632;23.198;2023-07-13T05:50:06;92468.66;;;23.27;71.56
34506;BME280;20748;42.632;23.198;2023-07-13T05:52:38;92470.75;;;23.49;70.83
34506;BME280;20748;42.632;23.198;2023-07-13T05:55:11;92468.63;;;23.69;70.68
34506;BME280;20748;42.632;23.198;2023-07-13T05:57:43;92467.94;;;23.76;68.72
34506;BME280;20748;42.632;23.198;2023-07-13T06:00:16;92469.16;;;23.89;68.24
34506;BME280;20748;42.632;23.198;2023-07-13T06:02:49;92455.06;;;23.89;69.72
34506;BME280;20748;42.632;23.198;2023-07-13T06:10:36;92450.72;;;24.25;67.74
34506;BME280;20748;42.632;23.198;2023-07-13T06:13:09;92449.28;;;24.43;67.50
34506;BME280;20748;42.632;23.198;2023-07-13T06:15:41;92456.22;;;24.62;68.91
34506;BME280;20748;42.632;23.198;2023-07-13T06:18:13;92458.97;;;24.80;68.14
34506;BME280;20748;42.632;23.198;2023-07-13T06:20:46;92458.63;;;24.85;66.61
34506;BME280;20748;42.632;23.198;2023-07-13T06:23:18;92460.16;;;25.01;66.67
34506;BME280;20748;42.632;23.198;2023-07-13T06:25:51;92461.72;;;25.13;65.18
34506;BME280;20748;42.632;23.198;2023-07-13T06:31:22;92459.50;;;25.55;64.79
34506;BME280;20748;42.632;23.198;2023-07-13T06:33:55;92456.81;;;25.77;63.63
34506;BME280;20748;42.632;23.198;2023-07-13T06:36:27;92453.38;;;25.94;63.34
34506;BME280;20748;42.632;23.198;2023-07-13T06:39:00;92459.81;;;26.08;61.51
34506;BME280;20748;42.632;23.198;2023-07-13T06:41:32;92463.66;;;26.25;62.06
34506;BME280;20748;42.632;23.198;2023-07-13T06:44:05;92456.75;;;26.31;61.78
34506;BME280;20748;42.632;23.198;2023-07-13T06:46:38;92460.50;;;26.48;63.08
34506;BME280;20748;42.632;23.198;2023-07-13T06:51:59;92458.41;;;27.00;62.94
34506;BME280;20748;42.632;23.198;2023-07-13T06:54:32;92457.94;;;27.12;61.88
34506;BME280;20748;42.632;23.198;2023-07-13T06:57:05;92461.25;;;27.34;60.66
34506;BME280;20748;42.632;23.198;2023-07-13T06:59:37;92461.88;;;27.57;59.27
34506;BME280;20748;42.632;23.198;2023-07-13T07:02:10;92462.16;;;27.73;59.73
34506;BME280;20748;42.632;23.198;2023-07-13T07:04:43;92457.81;;;27.87;58.05
34506;BME280;20748;42.632;23.198;2023-07-13T07:07:16;92463.44;;;28.00;57.38
34506;BME280;20748;42.632;23.198;2023-07-13T07:12:37;92465.41;;;28.38;57.65
34506;BME280;20748;42.632;23.198;2023-07-13T07:15:10;92463.38;;;28.49;55.20
34506;BME280;20748;42.632;23.198;2023-07-13T07:17:42;92453.44;;;28.77;56.90
34506;BME280;20748;42.632;23.198;2023-07-13T07:20:15;92461.50;;;28.77;52.47
34506;BME280;20748;42.632;23.198;2023-07-13T07:22:48;92465.44;;;29.00;52.48
34506;BME280;20748;42.632;23.198;2023-07-13T07:25:20;92458.47;;;29.06;50.37
34506;BME280;20748;42.632;23.198;2023-07-13T07:27:53;92457.16;;;29.18;51.26
34506;BME280;20748;42.632;23.198;2023-07-13T07:33:11;92453.00;;;29.41;49.33
34506;BME280;20748;42.632;23.198;2023-07-13T07:35:44;92447.38;;;29.59;47.14
34506;BME280;20748;42.632;23.198;2023-07-13T07:38:36;92452.00;;;29.83;46.87
34506;BME280;20748;42.632;23.198;2023-07-13T07:41:09;92449.81;;;29.98;46.14
34506;BME280;20748;42.632;23.198;2023-07-13T07:43:44;92450.63;;;30.19;45.83
34506;BME280;20748;42.632;23.198;2023-07-13T07:46:17;92439.88;;;30.19;45.04
34506;BME280;20748;42.632;23.198;2023-07-13T07:48:50;92440.00;;;30.11;42.83
34506;BME280;20748;42.632;23.198;2023-07-13T07:58:00;92439.06;;;30.22;33.64
34506;BME280;20748;42.632;23.198;2023-07-13T08:00:35;92451.50;;;30.36;33.70
34506;BME280;20748;42.632;23.198;2023-07-13T08:03:28;92440.28;;;30.58;34.08
34506;BME280;20748;42.632;23.198;2023-07-13T08:06:20;92435.41;;;30.73;35.42
34506;BME280;20748;42.632;23.198;2023-07-13T08:08:56;92429.53;;;30.78;34.06
34506;BME280;20748;42.632;23.198;2023-07-13T08:11:28;92426.84;;;30.78;33.42
34506;BME280;20748;42.632;23.198;2023-07-13T08:16:47;92416.06;;;31.15;34.52
34506;BME280;20748;42.632;23.198;2023-07-13T08:19:19;92416.63;;;31.43;32.74
34506;BME280;20748;42.632;23.198;2023-07-13T08:21:52;92414.66;;;31.60;32.97
34506;BME280;20748;42.632;23.198;2023-07-13T08:24:24;92410.53;;;31.72;33.15
34506;BME280;20748;42.632;23.198;2023-07-13T08:26:56;92415.59;;;31.86;31.49
34506;BME280;20748;42.632;23.198;2023-07-13T08:29:29;92419.28;;;31.93;31.63
34506;BME280;20748;42.632;23.198;2023-07-13T08:32:05;92421.59;;;32.24;31.24
34506;BME280;20748;42.632;23.198;2023-07-13T08:37:34;92412.28;;;32.41;30.58
34506;BME280;20748;42.632;23.198;2023-07-13T08:40:08;92396.19;;;32.51;30.56
34506;BME280;20748;42.632;23.198;2023-07-13T08:42:45;92399.34;;;32.62;27.82
34506;BME280;20748;42.632;23.198;2023-07-13T08:45:21;92400.56;;;32.74;28.25
34506;BME280;20748;42.632;23.198;2023-07-13T08:47:58;92397.75;;;32.78;28.71
34506;BME280;20748;42.632;23.198;2023-07-13T08:50:39;92397.59;;;32.98;29.66
34506;BME280;20748;42.632;23.198;2023-07-13T08:53:39;92398.75;;;32.97;29.66
34506;BME280;20748;42.632;23.198;2023-07-13T09:01:45;92406.31;;;32.89;31.31
34506;BME280;20748;42.632;23.198;2023-07-13T09:04:22;92418.19;;;32.79;30.57
34506;BME280;20748;42.632;23.198;2023-07-13T09:07:01;92418.09;;;32.95;31.49
34506;BME280;20748;42.632;23.198;2023-07-13T09:09:47;92432.28;;;33.13;30.71
34506;BME280;20748;42.632;23.198;2023-07-13T09:12:29;92426.22;;;33.21;31.36
34506;BME280;20748;42.632;23.198;2023-07-13T09:15:04;92433.38;;;33.28;30.89
34506;BME280;20748;42.632;23.198;2023-07-13T09:20:30;92430.78;;;33.51;27.44
34506;BME280;20748;42.632;23.198;2023-07-13T09:23:06;92433.69;;;33.56;30.14
34506;BME280;20748;42.632;23.198;2023-07-13T09:25:43;92439.19;;;33.53;30.17
34506;BME280;20748;42.632;23.198;2023-07-13T09:28:22;92444.72;;;33.36;29.90
34506;BME280;20748;42.632;23.198;2023-07-13T09:31:00;92447.19;;;33.43;29.36
34506;BME280;20748;42.632;23.198;2023-07-13T09:33:34;92459.84;;;33.72;30.17
34506;BME280;20748;42.632;23.198;2023-07-13T09:36:19;92452.59;;;33.82;28.08
34506;BME280;20748;42.632;23.198;2023-07-13T09:41:45;92449.13;;;33.30;27.55
34506;BME280;20748;42.632;23.198;2023-07-13T09:44:28;92440.16;;;33.59;27.84
34506;BME280;20748;42.632;23.198;2023-07-13T09:47:03;92448.59;;;33.35;27.45
34506;BME280;20748;42.632;23.198;2023-07-13T09:49:36;92439.00;;;33.60;27.69
34506;BME280;20748;42.632;23.198;2023-07-13T09:52:12;92439.47;;;33.94;27.64
34506;BME280;20748;42.632;23.198;2023-07-13T09:54:48;92425.59;;;33.92;28.17
34506;BME280;20748;42.632;23.198;2023-07-13T09:57:23;92428.50;;;34.10;27.96
34506;BME280;20748;42.632;23.198;2023-07-13T10:03:29;92421.53;;;34.22;27.36
34506;BME280;20748;42.632;23.198;2023-07-13T10:06:13;92403.47;;;34.41;28.13
34506;BME280;20748;42.632;23.198;2023-07-13T10:08:46;92412.31;;;34.20;27.70
34506;BME280;20748;42.632;23.198;2023-07-13T10:11:21;92411.06;;;34.34;27.92
34506;BME280;20748;42.632;23.198;2023-07-13T10:13:56;92401.56;;;34.29;27.08
34506;BME280;20748;42.632;23.198;2023-07-13T10:16:31;92403.69;;;34.57;27.76
34506;BME280;20748;42.632;23.198;2023-07-13T10:19:11;92405.72;;;34.21;27.24
34506;BME280;20748;42.632;23.198;2023-07-13T10:27:15;92400.00;;;34.63;28.88
34506;BME280;20748;42.632;23.198;2023-07-13T10:29:51;92390.91;;;34.79;28.54
34506;BME280;20748;42.632;23.198;2023-07-13T10:32:25;92390.38;;;34.94;29.66
34506;BME280;20748;42.632;23.198;2023-07-13T10:34:58;92395.56;;;34.79;28.47
34506;BME280;20748;42.632;23.198;2023-07-13T10:37:39;92393.47;;;34.83;28.26
34506;BME280;20748;42.632;23.198;2023-07-13T10:40:17;92391.16;;;34.50;27.53
34506;BME280;20748;42.632;23.198;2023-07-13T10:42:52;92385.13;;;34.46;27.69
34506;BME280;20748;42.632;23.198;2023-07-13T10:48:16;92381.50;;;35.03;28.84
34506;BME280;20748;42.632;23.198;2023-07-13T10:50:51;92374.97;;;35.13;28.36
34506;BME280;20748;42.632;23.198;2023-07-13T10:53:29;92372.38;;;35.10;28.74
34506;BME280;20748;42.632;23.198;2023-07-13T10:56:03;92373.69;;;35.46;28.46
34506;BME280;20748;42.632;23.198;2023-07-13T10:58:38;92370.44;;;35.70;29.38
34506;BME280;20748;42.632;23.198;2023-07-13T11:01:13;92371.78;;;35.65;27.83
34506;BME280;20748;42.632;23.198;2023-07-13T11:03:50;92367.97;;;35.53;28.17
34506;BME280;20748;42.632;23.198;2023-07-13T11:09:32;92353.31;;;35.23;28.53
34506;BME280;20748;42.632;23.198;2023-07-13T11:12:25;92343.72;;;35.40;28.75
34506;BME280;20748;42.632;23.198;2023-07-13T11:15:04;92351.78;;;35.21;28.57
34506;BME280;20748;42.632;23.198;2023-07-13T11:17:48;92341.38;;;35.11;29.25
34506;BME280;20748;42.632;23.198;2023-07-13T11:20:39;92337.00;;;35.13;28.45
34506;BME280;20748;42.632;23.198;2023-07-13T11:23:29;92336.16;;;34.94;28.30
34506;BME280;20748;42.632;23.198;2023-07-13T11:26:03;92341.06;;;35.18;27.54
34506;BME280;20748;42.632;23.198;2023-07-13T11:36:18;92338.47;;;35.83;28.70
34506;BME280;20748;42.632;23.198;2023-07-13T11:38:59;92331.09;;;35.84;28.25
34506;BME280;20748;42.632;23.198;2023-07-13T11:41:36;92317.97;;;35.82;26.17
34506;BME280;20748;42.632;23.198;2023-07-13T11:44:13;92335.94;;;35.70;27.35
34506;BME280;20748;42.632;23.198;2023-07-13T11:46:47;92334.56;;;35.75;26.63
34506;BME280;20748;42.632;23.198;2023-07-13T11:49:24;92328.81;;;36.01;28.45
34506;BME280;20748;42.632;23.198;2023-07-13T11:51:59;92329.25;;;36.09;28.43
34506;BME280;20748;42.632;23.198;2023-07-13T12:02:19;92310.72;;;36.07;26.38
34506;BME280;20748;42.632;23.198;2023-07-13T12:04:56;92314.63;;;36.25;26.79
34506;BME280;20748;42.632;23.198;2023-07-13T12:07:32;92308.88;;;36.41;26.24
34506;BME280;20748;42.632;23.198;2023-07-13T12:10:18;92304.09;;;36.08;25.91
34506;BME280;20748;42.632;23.198;2023-07-13T12:12:53;92311.94;;;36.16;27.67
34506;BME280;20748;42.632;23.198;2023-07-13T12:15:37;92296.25;;;35.45;27.58
34506;BME280;20748;42.632;23.198;2023-07-13T12:18:13;92300.78;;;35.57;28.35
34506;BME280;20748;42.632;23.198;2023-07-13T12:28:40;92286.28;;;35.14;28.29
34506;BME280;20748;42.632;23.198;2023-07-13T12:31:24;92280.41;;;35.25;26.99
34506;BME280;20748;42.632;23.198;2023-07-13T12:33:59;92276.03;;;35.37;28.09
34506;BME280;20748;42.632;23.198;2023-07-13T12:36:34;92277.84;;;35.21;27.97
34506;BME280;20748;42.632;23.198;2023-07-13T12:39:14;92273.44;;;35.14;27.77
34506;BME280;20748;42.632;23.198;2023-07-13T12:41:48;92268.78;;;35.24;27.67
34506;BME280;20748;42.632;23.198;2023-07-13T12:44:29;92271.84;;;34.76;28.41
34506;BME280;20748;42.632;23.198;2023-07-13T12:54:54;92260.16;;;34.57;28.11
34506;BME280;20748;42.632;23.198;2023-07-13T12:57:39;92252.72;;;34.79;28.45
34506;BME280;20748;42.632;23.198;2023-07-13T13:00:22;92252.75;;;34.89;27.35
34506;BME280;20748;42.632;23.198;2023-07-13T13:02:57;92248.97;;;34.86;27.60
34506;BME280;20748;42.632;23.198;2023-07-13T13:05:57;92248.56;;;34.56;28.41
34506;BME280;20748;42.632;23.198;2023-07-13T13:08:30;92256.59;;;34.69;29.70
34506;BME280;20748;42.632;23.198;2023-07-13T13:11:03;92236.34;;;34.51;27.88
34506;BME280;20748;42.632;23.198;2023-07-13T13:21:26;92245.94;;;34.75;28.88
34506;BME280;20748;42.632;23.198;2023-07-13T13:23:59;92233.72;;;34.70;28.96
34506;BME280;20748;42.632;23.198;2023-07-13T13:26:31;92232.44;;;34.52;27.34
34506;BME280;20748;42.632;23.198;2023-07-13T13:29:11;92234.31;;;34.65;27.86
34506;BME280;20748;42.632;23.198;2023-07-13T13:31:45;92230.06;;;34.54;27.91
34506;BME280;20748;42.632;23.198;2023-07-13T13:34:19;92237.59;;;34.60;28.10
34506;BME280;20748;42.632;23.198;2023-07-13T13:36:53;92227.03;;;34.52;28.79
34506;BME280;20748;42.632;23.198;2023-07-13T13:47:29;92219.25;;;34.23;29.53
34506;BME280;20748;42.632;23.198;2023-07-13T13:50:11;92214.78;;;34.29;30.79
34506;BME280;20748;42.632;23.198;2023-07-13T13:52:43;92224.84;;;34.28;29.61
34506;BME280;20748;42.632;23.198;2023-07-13T13:55:17;92223.34;;;34.27;30.03
34506;BME280;20748;42.632;23.198;2023-07-13T13:57:50;92218.63;;;34.19;28.73
34506;BME280;20748;42.632;23.198;2023-07-13T14:00:23;92214.00;;;34.28;29.75
34506;BME280;20748;42.632;23.198;2023-07-13T14:02:57;92215.97;;;34.28;29.29
34506;BME280;20748;42.632;23.198;2023-07-13T14:09:24;92217.00;;;34.21;30.61
34506;BME280;20748;42.632;23.198;2023-07-13T14:11:57;92218.28;;;34.07;30.66
34506;BME280;20748;42.632;23.198;2023-07-13T14:14:29;92214.38;;;34.08;30.05
34506;BME280;20748;42.632;23.198;2023-07-13T14:17:02;92211.56;;;34.21;30.76
34506;BME280;20748;42.632;23.198;2023-07-13T14:19:35;92211.50;;;34.34;32.42
34506;BME280;20748;42.632;23.198;2023-07-13T14:22:08;92210.56;;;34.28;30.82
34506;BME280;20748;42.632;23.198;2023-07-13T14:24:41;92205.44;;;33.98;30.82
34506;BME280;20748;42.632;23.198;2023-07-13T14:31:13;92202.66;;;34.11;31.71
34506;BME280;20748;42.632;23.198;2023-07-13T14:33:46;92208.81;;;34.12;31.21
34506;BME280;20748;42.632;23.198;2023-07-13T14:36:28;92203.53;;;34.08;31.29
34506;BME280;20748;42.632;23.198;2023-07-13T14:39:09;92202.94;;;34.04;31.85
34506;BME280;20748;42.632;23.198;2023-07-13T14:41:43;92194.97;;;34.10;31.85
34506;BME280;20748;42.632;23.198;2023-07-13T14:44:20;92192.34;;;33.97;31.52
34506;BME280;20748;42.632;23.198;2023-07-13T14:50:36;92195.06;;;33.74;32.44
34506;BME280;20748;42.632;23.198;2023-07-13T14:53:10;92190.03;;;33.86;33.33
34506;BME280;20748;42.632;23.198;2023-07-13T14:55:43;92186.81;;;33.78;32.94
34506;BME280;20748;42.632;23.198;2023-07-13T14:58:15;92186.78;;;33.69;32.34
34506;BME280;20748;42.632;23.198;2023-07-13T15:00:48;92186.41;;;33.57;31.11
34506;BME280;20748;42.632;23.198;2023-07-13T15:03:24;92186.28;;;33.61;32.37
34506;BME280;20748;42.632;23.198;2023-07-13T15:05:58;92185.09;;;33.62;33.56
34506;BME280;20748;42.632;23.198;2023-07-13T15:14:57;92194.84;;;33.59;33.50
34506;BME280;20748;42.632;23.198;2023-07-13T15:17:36;92188.19;;;33.51;33.92
34506;BME280;20748;42.632;23.198;2023-07-13T15:20:18;92196.06;;;33.68;33.97
34506;BME280;20748;42.632;23.198;2023-07-13T15:22:51;92194.66;;;33.54;32.73
34506;BME280;20748;42.632;23.198;2023-07-13T15:25:25;92196.06;;;33.45;32.98
34506;BME280;20748;42.632;23.198;2023-07-13T15:27:59;92191.34;;;33.37;34.05
34506;BME280;20748;42.632;23.198;2023-07-13T15:30:38;92186.06;;;33.33;32.87
34506;BME280;20748;42.632;23.198;2023-07-13T15:38:32;92179.47;;;33.34;33.60
34506;BME280;20748;42.632;23.198;2023-07-13T15:41:12;92188.22;;;33.38;33.86
34506;BME280;20748;42.632;23.198;2023-07-13T15:43:48;92176.63;;;33.38;33.54
34506;BME280;20748;42.632;23.198;2023-07-13T15:46:23;92183.41;;;33.20;34.17
34506;BME280;20748;42.632;23.198;2023-07-13T15:48:57;92180.34;;;33.31;34.60
34506;BME280;20748;42.632;23.198;2023-07-13T15:51:34;92176.63;;;33.15;35.17
34506;BME280;20748;42.632;23.198;2023-07-13T15:54:12;92184.09;;;33.11;36.04
34506;BME280;20748;42.632;23.198;2023-07-13T16:02:12;92184.97;;;32.95;34.41
34506;BME280;20748;42.632;23.198;2023-07-13T16:04:45;92189.97;;;32.97;35.34
34506;BME280;20748;42.632;23.198;2023-07-13T16:07:18;92184.56;;;32.97;36.03
34506;BME280;20748;42.632;23.198;2023-07-13T16:09:51;92182.19;;;32.99;35.30
34506;BME280;20748;42.632;23.198;2023-07-13T16:12:24;92183.72;;;32.87;35.16
34506;BME280;20748;42.632;23.198;2023-07-13T16:14:56;92180.78;;;32.81;36.29
34506;BME280;20748;42.632;23.198;2023-07-13T16:17:29;92182.75;;;32.80;35.56
34506;BME280;20748;42.632;23.198;2023-07-13T16:24:14;92175.03;;;32.57;35.86
34506;BME280;20748;42.632;23.198;2023-07-13T16:26:49;92179.78;;;32.52;36.55
34506;BME280;20748;42.632;23.198;2023-07-13T16:29:23;92174.50;;;32.49;36.10
34506;BME280;20748;42.632;23.198;2023-07-13T16:34:30;92179.13;;;32.09;36.30
34506;BME280;20748;42.632;23.198;2023-07-13T16:37:09;92175.75;;;32.05;36.99
34506;BME280;20748;42.632;23.198;2023-07-13T16:39:46;92172.91;;;31.83;37.62
34506;BME280;20748;42.632;23.198;2023-07-13T16:48:56;92175.00;;;31.92;38.43
34506;BME280;20748;42.632;23.198;2023-07-13T16:51:28;92175.88;;;31.88;39.49
34506;BME280;20748;42.632;23.198;2023-07-13T16:54:01;92180.50;;;31.88;40.18
34506;BME280;20748;42.632;23.198;2023-07-13T16:56:33;92186.66;;;31.88;40.46
34506;BME280;20748;42.632;23.198;2023-07-13T16:59:12;92179.94;;;31.80;41.45
34506;BME280;20748;42.632;23.198;2023-07-13T17:01:46;92181.97;;;31.76;41.88
34506;BME280;20748;42.632;23.198;2023-07-13T17:04:19;92185.84;;;31.75;41.85
34506;BME280;20748;42.632;23.198;2023-07-13T17:10:38;92177.75;;;31.62;41.83